sensor_id;sensor_type;location;lat;lon;timestamp;P1;durP1;ratioP1;P2;durP2;ratioP2
58878;SDS011;44660;42.664;23.266;2023-05-10T00:01:57;6.28;;;5.05;;
58878;SDS011;44660;42.664;23.266;2023-05-10T00:04:22;7.25;;;4.88;;
58878;SDS011;44660;42.664;23.266;2023-05-10T00:06:52;8.43;;;5.95;;
58878;SDS011;44660;42.664;23.266;2023-05-10T00:09:17;7.45;;;5.00;;
58878;SDS011;44660;42.664;23.266;2023-05-10T00:11:43;6.47;;;4.57;;
58878;SDS011;44660;42.664;23.266;2023-05-10T00:14:08;6.57;;;5.40;;
58878;SDS011;44660;42.664;23.266;2023-05-10T00:16:34;6.40;;;5.28;;
58878;SDS011;44660;42.664;23.266;2023-05-10T00:18:59;7.03;;;5.05;;
58878;SDS011;44660;42.664;23.266;2023-05-10T00:21:25;7.95;;;5.28;;
58878;SDS011;44660;42.664;23.266;2023-05-10T00:23:51;8.15;;;5.70;;
58878;SDS011;44660;42.664;23.266;2023-05-10T00:26:17;7.70;;;5.65;;
58878;SDS011;44660;42.664;23.266;2023-05-10T00:28:42;6.35;;;5.43;;
58878;SDS011;44660;42.664;23.266;2023-05-10T00:31:07;6.28;;;5.18;;
58878;SDS011;44660;42.664;23.266;2023-05-10T00:33:33;6.22;;;5.28;;
58878;SDS011;44660;42.664;23.266;2023-05-10T00:35:58;6.13;;;4.85;;
58878;SDS011;44660;42.664;23.266;2023-05-10T00:38:24;7.22;;;5.28;;
58878;SDS011;44660;42.664;23.266;2023-05-10T00:40:49;6.25;;;5.20;;
58878;SDS011;44660;42.664;23.266;2023-05-10T00:43:15;7.85;;;5.22;;
58878;SDS011;44660;42.664;23.266;2023-05-10T00:45:40;7.38;;;5.50;;
58878;SDS011;44660;42.664;23.266;2023-05-10T00:48:06;5.97;;;4.90;;
58878;SDS011;44660;42.664;23.266;2023-05-10T00:50:32;6.45;;;5.13;;
58878;SDS011;44660;42.664;23.266;2023-05-10T00:52:58;8.45;;;5.55;;
58878;SDS011;44660;42.664;23.266;2023-05-10T00:55:25;5.70;;;5.05;;
58878;SDS011;44660;42.664;23.266;2023-05-10T00:57:51;7.38;;;5.97;;
58878;SDS011;44660;42.664;23.266;2023-05-10T01:00:18;8.20;;;6.13;;
58878;SDS011;44660;42.664;23.266;2023-05-10T01:02:44;6.32;;;5.70;;
58878;SDS011;44660;42.664;23.266;2023-05-10T01:05:11;7.93;;;6.45;;
58878;SDS011;44660;42.664;23.266;2023-05-10T01:07:37;8.15;;;5.97;;
58878;SDS011;44660;42.664;23.266;2023-05-10T01:10:02;7.68;;;6.53;;
58878;SDS011;44660;42.664;23.266;2023-05-10T01:12:28;6.43;;;5.50;;
58878;SDS011;44660;42.664;23.266;2023-05-10T01:14:54;6.45;;;5.35;;
58878;SDS011;44660;42.664;23.266;2023-05-10T01:17:20;6.80;;;5.38;;
58878;SDS011;44660;42.664;23.266;2023-05-10T01:19:47;7.13;;;5.50;;
58878;SDS011;44660;42.664;23.266;2023-05-10T01:30:29;7.30;;;5.15;;
58878;SDS011;44660;42.664;23.266;2023-05-10T01:38:38;6.78;;;5.70;;
58878;SDS011;44660;42.664;23.266;2023-05-10T01:47:01;6.43;;;4.70;;
58878;SDS011;44660;42.664;23.266;2023-05-10T01:49:32;7.45;;;4.57;;
58878;SDS011;44660;42.664;23.266;2023-05-10T01:52:12;5.70;;;4.53;;
58878;SDS011;44660;42.664;23.266;2023-05-10T01:54:41;4.38;;;3.97;;
58878;SDS011;44660;42.664;23.266;2023-05-10T01:57:14;4.97;;;4.10;;
58878;SDS011;44660;42.664;23.266;2023-05-10T01:59:42;6.13;;;4.55;;
58878;SDS011;44660;42.664;23.266;2023-05-10T02:02:10;5.88;;;4.35;;
58878;SDS011;44660;42.664;23.266;2023-05-10T02:04:38;7.82;;;4.05;;
58878;SDS011;44660;42.664;23.266;2023-05-10T02:07:05;4.38;;;3.97;;
58878;SDS011;44660;42.664;23.266;2023-05-10T02:09:33;5.28;;;4.22;;
58878;SDS011;44660;42.664;23.266;2023-05-10T02:11:59;5.13;;;4.10;;
58878;SDS011;44660;42.664;23.266;2023-05-10T02:14:27;4.63;;;3.90;;
58878;SDS011;44660;42.664;23.266;2023-05-10T02:16:55;4.70;;;3.88;;
58878;SDS011;44660;42.664;23.266;2023-05-10T02:19:23;4.45;;;3.35;;
58878;SDS011;44660;42.664;23.266;2023-05-10T02:21:50;3.35;;;3.03;;
58878;SDS011;44660;42.664;23.266;2023-05-10T02:24:16;4.15;;;3.40;;
58878;SDS011;44660;42.664;23.266;2023-05-10T02:26:44;4.03;;;3.63;;
58878;SDS011;44660;42.664;23.266;2023-05-10T02:29:12;4.60;;;3.65;;
58878;SDS011;44660;42.664;23.266;2023-05-10T02:31:39;4.47;;;3.90;;
58878;SDS011;44660;42.664;23.266;2023-05-10T02:34:08;4.82;;;3.55;;
58878;SDS011;44660;42.664;23.266;2023-05-10T02:36:35;5.63;;;3.58;;
58878;SDS011;44660;42.664;23.266;2023-05-10T02:39:03;5.03;;;3.80;;
58878;SDS011;44660;42.664;23.266;2023-05-10T02:41:30;5.88;;;3.80;;
58878;SDS011;44660;42.664;23.266;2023-05-10T02:43:59;6.28;;;3.97;;
58878;SDS011;44660;42.664;23.266;2023-05-10T02:46:26;6.90;;;4.18;;
58878;SDS011;44660;42.664;23.266;2023-05-10T02:48:51;7.45;;;3.75;;
58878;SDS011;44660;42.664;23.266;2023-05-10T02:51:18;5.57;;;4.10;;
58878;SDS011;44660;42.664;23.266;2023-05-10T02:53:46;5.35;;;3.85;;
58878;SDS011;44660;42.664;23.266;2023-05-10T02:56:15;6.28;;;4.00;;
58878;SDS011;44660;42.664;23.266;2023-05-10T02:58:48;6.38;;;3.75;;
58878;SDS011;44660;42.664;23.266;2023-05-10T03:01:14;6.22;;;4.07;;
58878;SDS011;44660;42.664;23.266;2023-05-10T03:03:40;5.50;;;3.80;;
58878;SDS011;44660;42.664;23.266;2023-05-10T03:06:05;5.65;;;3.90;;
58878;SDS011;44660;42.664;23.266;2023-05-10T03:08:31;4.75;;;3.72;;
58878;SDS011;44660;42.664;23.266;2023-05-10T03:16:15;6.13;;;4.20;;
58878;SDS011;44660;42.664;23.266;2023-05-10T03:18:58;4.75;;;3.90;;
58878;SDS011;44660;42.664;23.266;2023-05-10T03:21:31;6.35;;;4.35;;
58878;SDS011;44660;42.664;23.266;2023-05-10T03:24:07;7.35;;;4.50;;
58878;SDS011;44660;42.664;23.266;2023-05-10T03:26:36;6.00;;;4.13;;
58878;SDS011;44660;42.664;23.266;2023-05-10T03:29:04;7.30;;;4.43;;
58878;SDS011;44660;42.664;23.266;2023-05-10T03:31:31;6.53;;;4.35;;
58878;SDS011;44660;42.664;23.266;2023-05-10T03:33:57;5.18;;;4.28;;
58878;SDS011;44660;42.664;23.266;2023-05-10T03:36:23;7.00;;;4.47;;
58878;SDS011;44660;42.664;23.266;2023-05-10T03:38:48;6.13;;;3.88;;
58878;SDS011;44660;42.664;23.266;2023-05-10T03:41:14;6.18;;;3.92;;
58878;SDS011;44660;42.664;23.266;2023-05-10T03:43:40;7.43;;;4.30;;
58878;SDS011;44660;42.664;23.266;2023-05-10T03:46:06;5.45;;;3.97;;
58878;SDS011;44660;42.664;23.266;2023-05-10T03:48:32;5.95;;;4.03;;
58878;SDS011;44660;42.664;23.266;2023-05-10T03:50:57;6.88;;;4.30;;
58878;SDS011;44660;42.664;23.266;2023-05-10T03:53:23;5.63;;;4.35;;
58878;SDS011;44660;42.664;23.266;2023-05-10T03:55:48;6.07;;;4.10;;
58878;SDS011;44660;42.664;23.266;2023-05-10T03:58:14;5.28;;;4.22;;
58878;SDS011;44660;42.664;23.266;2023-05-10T04:00:39;6.85;;;4.15;;
58878;SDS011;44660;42.664;23.266;2023-05-10T04:03:11;7.57;;;4.63;;
58878;SDS011;44660;42.664;23.266;2023-05-10T04:05:37;4.57;;;3.80;;
58878;SDS011;44660;42.664;23.266;2023-05-10T04:08:03;6.03;;;4.38;;
58878;SDS011;44660;42.664;23.266;2023-05-10T04:10:29;7.05;;;4.10;;
58878;SDS011;44660;42.664;23.266;2023-05-10T04:12:54;10.77;;;6.25;;
58878;SDS011;44660;42.664;23.266;2023-05-10T04:15:20;8.35;;;4.95;;
58878;SDS011;44660;42.664;23.266;2023-05-10T04:17:45;17.90;;;9.55;;
58878;SDS011;44660;42.664;23.266;2023-05-10T04:20:12;6.22;;;4.50;;
58878;SDS011;44660;42.664;23.266;2023-05-10T04:22:37;7.80;;;4.57;;
58878;SDS011;44660;42.664;23.266;2023-05-10T04:25:03;15.02;;;8.68;;
58878;SDS011;44660;42.664;23.266;2023-05-10T04:27:29;6.82;;;4.78;;
58878;SDS011;44660;42.664;23.266;2023-05-10T04:29:56;6.07;;;4.22;;
58878;SDS011;44660;42.664;23.266;2023-05-10T04:32:21;8.68;;;4.43;;
58878;SDS011;44660;42.664;23.266;2023-05-10T04:34:47;5.75;;;4.80;;
58878;SDS011;44660;42.664;23.266;2023-05-10T04:37:12;7.65;;;5.05;;
58878;SDS011;44660;42.664;23.266;2023-05-10T04:39:38;7.47;;;4.30;;
58878;SDS011;44660;42.664;23.266;2023-05-10T04:42:03;7.75;;;4.47;;
58878;SDS011;44660;42.664;23.266;2023-05-10T04:44:30;6.88;;;4.75;;
58878;SDS011;44660;42.664;23.266;2023-05-10T04:46:58;8.85;;;4.63;;
58878;SDS011;44660;42.664;23.266;2023-05-10T04:49:24;7.70;;;4.82;;
58878;SDS011;44660;42.664;23.266;2023-05-10T04:51:49;5.90;;;4.15;;
58878;SDS011;44660;42.664;23.266;2023-05-10T04:54:15;10.98;;;6.82;;
58878;SDS011;44660;42.664;23.266;2023-05-10T04:56:40;6.93;;;4.55;;
58878;SDS011;44660;42.664;23.266;2023-05-10T04:59:06;6.50;;;4.47;;
58878;SDS011;44660;42.664;23.266;2023-05-10T05:01:31;6.45;;;4.40;;
58878;SDS011;44660;42.664;23.266;2023-05-10T05:03:57;8.25;;;4.60;;
58878;SDS011;44660;42.664;23.266;2023-05-10T05:06:22;7.45;;;4.50;;
58878;SDS011;44660;42.664;23.266;2023-05-10T05:08:49;7.68;;;4.47;;
58878;SDS011;44660;42.664;23.266;2023-05-10T05:11:15;7.80;;;4.50;;
58878;SDS011;44660;42.664;23.266;2023-05-10T05:13:41;7.65;;;5.22;;
58878;SDS011;44660;42.664;23.266;2023-05-10T05:16:06;8.45;;;5.68;;
58878;SDS011;44660;42.664;23.266;2023-05-10T05:18:32;9.63;;;5.95;;
58878;SDS011;44660;42.664;23.266;2023-05-10T05:20:57;7.03;;;4.30;;
58878;SDS011;44660;42.664;23.266;2023-05-10T05:23:23;6.38;;;4.47;;
58878;SDS011;44660;42.664;23.266;2023-05-10T05:25:51;8.43;;;5.70;;
58878;SDS011;44660;42.664;23.266;2023-05-10T05:28:19;10.13;;;5.88;;
58878;SDS011;44660;42.664;23.266;2023-05-10T05:30:46;8.02;;;6.03;;
58878;SDS011;44660;42.664;23.266;2023-05-10T05:33:14;7.55;;;5.80;;
58878;SDS011;44660;42.664;23.266;2023-05-10T05:35:40;10.10;;;5.75;;
58878;SDS011;44660;42.664;23.266;2023-05-10T05:38:07;6.88;;;5.43;;
58878;SDS011;44660;42.664;23.266;2023-05-10T05:40:33;9.85;;;5.65;;
58878;SDS011;44660;42.664;23.266;2023-05-10T05:42:59;17.05;;;6.03;;
58878;SDS011;44660;42.664;23.266;2023-05-10T05:45:24;10.88;;;5.82;;
58878;SDS011;44660;42.664;23.266;2023-05-10T05:47:50;10.57;;;5.78;;
58878;SDS011;44660;42.664;23.266;2023-05-10T05:50:15;8.63;;;6.03;;
58878;SDS011;44660;42.664;23.266;2023-05-10T05:52:41;11.27;;;5.95;;
58878;SDS011;44660;42.664;23.266;2023-05-10T05:55:06;10.38;;;6.40;;
58878;SDS011;44660;42.664;23.266;2023-05-10T05:57:32;8.65;;;5.82;;
58878;SDS011;44660;42.664;23.266;2023-05-10T05:59:58;10.52;;;6.50;;
58878;SDS011;44660;42.664;23.266;2023-05-10T06:02:23;11.60;;;6.45;;
58878;SDS011;44660;42.664;23.266;2023-05-10T06:04:49;9.50;;;6.32;;
58878;SDS011;44660;42.664;23.266;2023-05-10T06:07:15;10.25;;;6.55;;
58878;SDS011;44660;42.664;23.266;2023-05-10T06:09:40;9.85;;;6.43;;
58878;SDS011;44660;42.664;23.266;2023-05-10T06:12:06;10.88;;;6.97;;
58878;SDS011;44660;42.664;23.266;2023-05-10T06:14:31;10.43;;;6.93;;
58878;SDS011;44660;42.664;23.266;2023-05-10T06:16:57;11.18;;;6.78;;
58878;SDS011;44660;42.664;23.266;2023-05-10T06:19:24;11.88;;;8.00;;
58878;SDS011;44660;42.664;23.266;2023-05-10T06:21:51;10.27;;;7.05;;
58878;SDS011;44660;42.664;23.266;2023-05-10T06:24:16;11.25;;;7.43;;
58878;SDS011;44660;42.664;23.266;2023-05-10T06:26:42;11.27;;;7.35;;
58878;SDS011;44660;42.664;23.266;2023-05-10T06:29:07;11.60;;;7.70;;
58878;SDS011;44660;42.664;23.266;2023-05-10T06:31:33;14.05;;;8.68;;
58878;SDS011;44660;42.664;23.266;2023-05-10T06:33:58;16.48;;;9.15;;
58878;SDS011;44660;42.664;23.266;2023-05-10T06:36:24;14.60;;;8.60;;
58878;SDS011;44660;42.664;23.266;2023-05-10T06:38:51;11.52;;;7.47;;
58878;SDS011;44660;42.664;23.266;2023-05-10T06:41:16;15.82;;;8.45;;
58878;SDS011;44660;42.664;23.266;2023-05-10T06:43:42;15.35;;;8.43;;
58878;SDS011;44660;42.664;23.266;2023-05-10T06:46:08;15.30;;;8.75;;
58878;SDS011;44660;42.664;23.266;2023-05-10T06:48:33;15.55;;;8.57;;
58878;SDS011;44660;42.664;23.266;2023-05-10T06:50:59;13.30;;;6.95;;
58878;SDS011;44660;42.664;23.266;2023-05-10T06:53:25;12.00;;;7.38;;
58878;SDS011;44660;42.664;23.266;2023-05-10T06:55:50;11.10;;;7.43;;
58878;SDS011;44660;42.664;23.266;2023-05-10T06:58:16;11.98;;;8.10;;
58878;SDS011;44660;42.664;23.266;2023-05-10T07:00:41;12.82;;;7.60;;
58878;SDS011;44660;42.664;23.266;2023-05-10T07:03:09;9.48;;;6.97;;
58878;SDS011;44660;42.664;23.266;2023-05-10T07:05:35;12.07;;;7.75;;
58878;SDS011;44660;42.664;23.266;2023-05-10T07:08:01;9.30;;;6.85;;
58878;SDS011;44660;42.664;23.266;2023-05-10T07:10:26;11.00;;;7.00;;
58878;SDS011;44660;42.664;23.266;2023-05-10T07:12:52;10.68;;;7.18;;
58878;SDS011;44660;42.664;23.266;2023-05-10T07:15:17;16.23;;;9.80;;
58878;SDS011;44660;42.664;23.266;2023-05-10T07:17:43;11.00;;;7.25;;
58878;SDS011;44660;42.664;23.266;2023-05-10T07:20:08;10.82;;;6.78;;
58878;SDS011;44660;42.664;23.266;2023-05-10T07:22:34;11.13;;;7.00;;
58878;SDS011;44660;42.664;23.266;2023-05-10T07:25:00;11.93;;;6.97;;
58878;SDS011;44660;42.664;23.266;2023-05-10T07:27:25;12.32;;;7.47;;
58878;SDS011;44660;42.664;23.266;2023-05-10T07:29:51;9.50;;;6.72;;
58878;SDS011;44660;42.664;23.266;2023-05-10T07:32:16;9.90;;;6.88;;
58878;SDS011;44660;42.664;23.266;2023-05-10T07:34:42;12.43;;;7.57;;
58878;SDS011;44660;42.664;23.266;2023-05-10T07:37:07;12.52;;;7.38;;
58878;SDS011;44660;42.664;23.266;2023-05-10T07:39:33;14.07;;;7.72;;
58878;SDS011;44660;42.664;23.266;2023-05-10T07:41:58;12.50;;;7.05;;
58878;SDS011;44660;42.664;23.266;2023-05-10T07:44:24;14.35;;;9.40;;
58878;SDS011;44660;42.664;23.266;2023-05-10T07:46:50;10.23;;;7.22;;
58878;SDS011;44660;42.664;23.266;2023-05-10T07:49:15;11.55;;;7.90;;
58878;SDS011;44660;42.664;23.266;2023-05-10T07:51:41;11.73;;;7.68;;
58878;SDS011;44660;42.664;23.266;2023-05-10T07:54:07;12.73;;;7.45;;
58878;SDS011;44660;42.664;23.266;2023-05-10T07:56:33;15.82;;;7.53;;
58878;SDS011;44660;42.664;23.266;2023-05-10T07:58:59;12.18;;;7.70;;
58878;SDS011;44660;42.664;23.266;2023-05-10T08:01:25;11.57;;;8.23;;
58878;SDS011;44660;42.664;23.266;2023-05-10T08:03:51;13.00;;;8.00;;
58878;SDS011;44660;42.664;23.266;2023-05-10T08:06:18;11.35;;;7.82;;
58878;SDS011;44660;42.664;23.266;2023-05-10T08:08:48;15.93;;;8.63;;
58878;SDS011;44660;42.664;23.266;2023-05-10T08:11:18;10.77;;;7.60;;
58878;SDS011;44660;42.664;23.266;2023-05-10T08:13:45;12.27;;;7.60;;
58878;SDS011;44660;42.664;23.266;2023-05-10T08:16:11;13.95;;;8.30;;
58878;SDS011;44660;42.664;23.266;2023-05-10T08:18:37;10.88;;;7.97;;
58878;SDS011;44660;42.664;23.266;2023-05-10T08:21:02;12.30;;;7.65;;
58878;SDS011;44660;42.664;23.266;2023-05-10T08:23:28;17.08;;;8.75;;
58878;SDS011;44660;42.664;23.266;2023-05-10T08:25:54;11.55;;;7.85;;
58878;SDS011;44660;42.664;23.266;2023-05-10T08:28:19;10.75;;;7.75;;
58878;SDS011;44660;42.664;23.266;2023-05-10T08:30:45;16.73;;;8.88;;
58878;SDS011;44660;42.664;23.266;2023-05-10T08:33:10;12.02;;;8.38;;
58878;SDS011;44660;42.664;23.266;2023-05-10T08:35:36;12.13;;;7.70;;
58878;SDS011;44660;42.664;23.266;2023-05-10T08:38:01;11.48;;;7.55;;
58878;SDS011;44660;42.664;23.266;2023-05-10T08:40:27;11.68;;;8.00;;
58878;SDS011;44660;42.664;23.266;2023-05-10T08:43:03;14.10;;;7.53;;
58878;SDS011;44660;42.664;23.266;2023-05-10T08:45:32;15.32;;;8.38;;
58878;SDS011;44660;42.664;23.266;2023-05-10T08:48:01;10.75;;;7.30;;
58878;SDS011;44660;42.664;23.266;2023-05-10T08:50:30;11.82;;;7.53;;
58878;SDS011;44660;42.664;23.266;2023-05-10T08:52:57;10.80;;;8.07;;
58878;SDS011;44660;42.664;23.266;2023-05-10T08:55:26;11.63;;;8.45;;
58878;SDS011;44660;42.664;23.266;2023-05-10T08:57:52;12.73;;;8.05;;
58878;SDS011;44660;42.664;23.266;2023-05-10T09:00:18;14.00;;;8.88;;
58878;SDS011;44660;42.664;23.266;2023-05-10T09:02:45;12.65;;;7.55;;
58878;SDS011;44660;42.664;23.266;2023-05-10T09:05:13;13.20;;;8.07;;
58878;SDS011;44660;42.664;23.266;2023-05-10T09:07:40;9.68;;;7.32;;
58878;SDS011;44660;42.664;23.266;2023-05-10T09:10:06;13.32;;;8.50;;
58878;SDS011;44660;42.664;23.266;2023-05-10T09:12:38;11.13;;;8.25;;
58878;SDS011;44660;42.664;23.266;2023-05-10T09:15:04;12.73;;;8.70;;
58878;SDS011;44660;42.664;23.266;2023-05-10T09:17:31;14.23;;;8.75;;
58878;SDS011;44660;42.664;23.266;2023-05-10T09:20:00;12.52;;;8.05;;
58878;SDS011;44660;42.664;23.266;2023-05-10T09:22:26;10.82;;;8.40;;
58878;SDS011;44660;42.664;23.266;2023-05-10T09:27:31;10.38;;;7.85;;
58878;SDS011;44660;42.664;23.266;2023-05-10T09:29:57;10.50;;;8.38;;
58878;SDS011;44660;42.664;23.266;2023-05-10T09:32:35;13.18;;;9.20;;
58878;SDS011;44660;42.664;23.266;2023-05-10T09:35:08;10.68;;;8.70;;
58878;SDS011;44660;42.664;23.266;2023-05-10T09:37:34;11.25;;;7.88;;
58878;SDS011;44660;42.664;23.266;2023-05-10T09:39:59;10.75;;;7.97;;
58878;SDS011;44660;42.664;23.266;2023-05-10T09:42:25;10.90;;;7.90;;
58878;SDS011;44660;42.664;23.266;2023-05-10T09:44:50;12.88;;;8.32;;
58878;SDS011;44660;42.664;23.266;2023-05-10T09:47:19;10.57;;;7.43;;
58878;SDS011;44660;42.664;23.266;2023-05-10T09:49:49;10.65;;;8.32;;
58878;SDS011;44660;42.664;23.266;2023-05-10T09:52:17;11.45;;;7.80;;
58878;SDS011;44660;42.664;23.266;2023-05-10T09:54:52;9.77;;;7.75;;
58878;SDS011;44660;42.664;23.266;2023-05-10T09:57:22;9.70;;;8.13;;
58878;SDS011;44660;42.664;23.266;2023-05-10T10:15:43;12.50;;;8.40;;
58878;SDS011;44660;42.664;23.266;2023-05-10T10:18:13;10.43;;;7.72;;
58878;SDS011;44660;42.664;23.266;2023-05-10T10:20:40;11.07;;;8.80;;
58878;SDS011;44660;42.664;23.266;2023-05-10T10:23:06;16.63;;;8.10;;
58878;SDS011;44660;42.664;23.266;2023-05-10T10:25:33;10.93;;;7.60;;
58878;SDS011;44660;42.664;23.266;2023-05-10T10:28:02;12.38;;;8.32;;
58878;SDS011;44660;42.664;23.266;2023-05-10T10:30:43;9.88;;;7.75;;
58878;SDS011;44660;42.664;23.266;2023-05-10T10:35:46;8.82;;;7.72;;
58878;SDS011;44660;42.664;23.266;2023-05-10T10:38:12;12.48;;;7.82;;
58878;SDS011;44660;42.664;23.266;2023-05-10T10:40:38;9.85;;;7.28;;
58878;SDS011;44660;42.664;23.266;2023-05-10T10:48:40;9.30;;;7.72;;
58878;SDS011;44660;42.664;23.266;2023-05-10T10:51:16;9.50;;;7.80;;
58878;SDS011;44660;42.664;23.266;2023-05-10T10:53:42;12.45;;;7.07;;
58878;SDS011;44660;42.664;23.266;2023-05-10T10:56:09;8.98;;;7.18;;
58878;SDS011;44660;42.664;23.266;2023-05-10T10:58:37;11.38;;;7.30;;
58878;SDS011;44660;42.664;23.266;2023-05-10T11:01:16;8.80;;;6.88;;
58878;SDS011;44660;42.664;23.266;2023-05-10T11:06:33;8.27;;;6.85;;
58878;SDS011;44660;42.664;23.266;2023-05-10T11:09:06;12.60;;;6.68;;
58878;SDS011;44660;42.664;23.266;2023-05-10T11:11:34;8.57;;;7.32;;
58878;SDS011;44660;42.664;23.266;2023-05-10T11:14:04;11.90;;;6.18;;
58878;SDS011;44660;42.664;23.266;2023-05-10T11:16:40;8.38;;;6.53;;
58878;SDS011;44660;42.664;23.266;2023-05-10T11:19:12;12.60;;;6.72;;
58878;SDS011;44660;42.664;23.266;2023-05-10T11:24:16;11.77;;;6.13;;
58878;SDS011;44660;42.664;23.266;2023-05-10T11:26:43;8.88;;;6.40;;
58878;SDS011;44660;42.664;23.266;2023-05-10T11:29:08;9.25;;;7.03;;
58878;SDS011;44660;42.664;23.266;2023-05-10T11:31:34;11.55;;;6.88;;
58878;SDS011;44660;42.664;23.266;2023-05-10T11:34:00;11.57;;;6.85;;
58878;SDS011;44660;42.664;23.266;2023-05-10T11:36:32;9.90;;;6.90;;
58878;SDS011;44660;42.664;23.266;2023-05-10T11:41:25;9.85;;;6.35;;
58878;SDS011;44660;42.664;23.266;2023-05-10T11:43:54;12.50;;;7.63;;
58878;SDS011;44660;42.664;23.266;2023-05-10T11:46:20;12.73;;;8.25;;
58878;SDS011;44660;42.664;23.266;2023-05-10T11:48:58;14.20;;;7.47;;
58878;SDS011;44660;42.664;23.266;2023-05-10T11:51:26;10.30;;;7.85;;
58878;SDS011;44660;42.664;23.266;2023-05-10T11:53:53;11.43;;;6.57;;
58878;SDS011;44660;42.664;23.266;2023-05-10T11:56:19;11.65;;;7.97;;
58878;SDS011;44660;42.664;23.266;2023-05-10T11:58:45;11.30;;;7.53;;
58878;SDS011;44660;42.664;23.266;2023-05-10T12:01:18;10.60;;;6.78;;
58878;SDS011;44660;42.664;23.266;2023-05-10T12:03:43;9.70;;;7.15;;
58878;SDS011;44660;42.664;23.266;2023-05-10T12:06:09;9.45;;;7.20;;
58878;SDS011;44660;42.664;23.266;2023-05-10T12:08:35;11.73;;;7.22;;
58878;SDS011;44660;42.664;23.266;2023-05-10T12:11:04;9.77;;;7.13;;
58878;SDS011;44660;42.664;23.266;2023-05-10T12:13:38;10.20;;;7.60;;
58878;SDS011;44660;42.664;23.266;2023-05-10T12:16:18;9.15;;;7.15;;
58878;SDS011;44660;42.664;23.266;2023-05-10T12:18:48;13.27;;;7.82;;
58878;SDS011;44660;42.664;23.266;2023-05-10T12:21:14;11.93;;;8.10;;
58878;SDS011;44660;42.664;23.266;2023-05-10T12:23:40;8.18;;;6.93;;
58878;SDS011;44660;42.664;23.266;2023-05-10T12:26:06;18.52;;;7.55;;
58878;SDS011;44660;42.664;23.266;2023-05-10T12:28:35;10.57;;;7.97;;
58878;SDS011;44660;42.664;23.266;2023-05-10T12:31:01;10.93;;;7.57;;
58878;SDS011;44660;42.664;23.266;2023-05-10T12:33:36;11.45;;;7.75;;
58878;SDS011;44660;42.664;23.266;2023-05-10T12:36:04;9.35;;;7.65;;
58878;SDS011;44660;42.664;23.266;2023-05-10T12:38:37;10.85;;;7.47;;
58878;SDS011;44660;42.664;23.266;2023-05-10T12:41:12;11.48;;;8.20;;
58878;SDS011;44660;42.664;23.266;2023-05-10T12:43:38;10.38;;;7.90;;
58878;SDS011;44660;42.664;23.266;2023-05-10T12:46:05;13.02;;;7.47;;
58878;SDS011;44660;42.664;23.266;2023-05-10T12:48:32;10.70;;;7.93;;
58878;SDS011;44660;42.664;23.266;2023-05-10T12:50:59;13.02;;;8.30;;
58878;SDS011;44660;42.664;23.266;2023-05-10T12:53:25;13.32;;;8.98;;
58878;SDS011;44660;42.664;23.266;2023-05-10T12:55:50;10.38;;;7.78;;
58878;SDS011;44660;42.664;23.266;2023-05-10T12:58:16;12.48;;;8.68;;
58878;SDS011;44660;42.664;23.266;2023-05-10T13:00:41;11.10;;;7.88;;
58878;SDS011;44660;42.664;23.266;2023-05-10T13:03:08;10.55;;;8.13;;
58878;SDS011;44660;42.664;23.266;2023-05-10T13:05:34;10.57;;;8.07;;
58878;SDS011;44660;42.664;23.266;2023-05-10T13:08:00;12.18;;;8.23;;
58878;SDS011;44660;42.664;23.266;2023-05-10T13:10:26;18.40;;;8.73;;
58878;SDS011;44660;42.664;23.266;2023-05-10T13:12:53;11.35;;;7.65;;
58878;SDS011;44660;42.664;23.266;2023-05-10T13:15:18;11.20;;;7.60;;
58878;SDS011;44660;42.664;23.266;2023-05-10T13:17:43;12.75;;;9.85;;
58878;SDS011;44660;42.664;23.266;2023-05-10T13:20:10;12.57;;;8.10;;
58878;SDS011;44660;42.664;23.266;2023-05-10T13:22:36;12.88;;;7.57;;
58878;SDS011;44660;42.664;23.266;2023-05-10T13:25:01;12.02;;;8.50;;
58878;SDS011;44660;42.664;23.266;2023-05-10T13:27:27;15.00;;;8.38;;
58878;SDS011;44660;42.664;23.266;2023-05-10T13:29:53;12.63;;;7.97;;
58878;SDS011;44660;42.664;23.266;2023-05-10T13:32:19;11.43;;;8.07;;
58878;SDS011;44660;42.664;23.266;2023-05-10T13:34:45;14.48;;;8.15;;
58878;SDS011;44660;42.664;23.266;2023-05-10T13:37:10;11.10;;;7.28;;
58878;SDS011;44660;42.664;23.266;2023-05-10T13:39:36;12.68;;;7.72;;
58878;SDS011;44660;42.664;23.266;2023-05-10T13:42:02;10.98;;;7.43;;
58878;SDS011;44660;42.664;23.266;2023-05-10T13:44:28;11.60;;;7.45;;
58878;SDS011;44660;42.664;23.266;2023-05-10T13:46:54;11.85;;;8.25;;
58878;SDS011;44660;42.664;23.266;2023-05-10T13:49:20;12.18;;;7.78;;
58878;SDS011;44660;42.664;23.266;2023-05-10T13:51:46;11.10;;;7.78;;
58878;SDS011;44660;42.664;23.266;2023-05-10T13:54:11;12.55;;;7.15;;
58878;SDS011;44660;42.664;23.266;2023-05-10T13:56:38;12.70;;;8.23;;
58878;SDS011;44660;42.664;23.266;2023-05-10T13:59:05;10.63;;;7.57;;
58878;SDS011;44660;42.664;23.266;2023-05-10T14:01:31;11.10;;;7.60;;
58878;SDS011;44660;42.664;23.266;2023-05-10T14:03:56;10.88;;;7.20;;
58878;SDS011;44660;42.664;23.266;2023-05-10T14:06:22;12.38;;;7.63;;
58878;SDS011;44660;42.664;23.266;2023-05-10T14:08:47;12.75;;;7.40;;
58878;SDS011;44660;42.664;23.266;2023-05-10T14:11:13;11.60;;;7.47;;
58878;SDS011;44660;42.664;23.266;2023-05-10T14:13:39;10.73;;;7.68;;
58878;SDS011;44660;42.664;23.266;2023-05-10T14:16:04;9.13;;;7.05;;
58878;SDS011;44660;42.664;23.266;2023-05-10T14:18:30;10.63;;;7.60;;
58878;SDS011;44660;42.664;23.266;2023-05-10T14:20:56;12.90;;;8.20;;
58878;SDS011;44660;42.664;23.266;2023-05-10T14:23:22;10.27;;;7.22;;
58878;SDS011;44660;42.664;23.266;2023-05-10T14:25:51;9.75;;;7.20;;
58878;SDS011;44660;42.664;23.266;2023-05-10T14:28:17;11.98;;;7.30;;
58878;SDS011;44660;42.664;23.266;2023-05-10T14:30:43;11.02;;;7.90;;
58878;SDS011;44660;42.664;23.266;2023-05-10T14:33:09;9.32;;;7.32;;
58878;SDS011;44660;42.664;23.266;2023-05-10T14:35:35;12.43;;;6.95;;
58878;SDS011;44660;42.664;23.266;2023-05-10T14:38:01;10.55;;;7.35;;
58878;SDS011;44660;42.664;23.266;2023-05-10T14:40:28;10.88;;;7.47;;
58878;SDS011;44660;42.664;23.266;2023-05-10T14:42:53;9.85;;;7.57;;
58878;SDS011;44660;42.664;23.266;2023-05-10T14:45:19;12.60;;;7.80;;
58878;SDS011;44660;42.664;23.266;2023-05-10T14:47:45;10.82;;;8.02;;
58878;SDS011;44660;42.664;23.266;2023-05-10T14:50:11;12.48;;;7.50;;
58878;SDS011;44660;42.664;23.266;2023-05-10T14:55:58;11.82;;;7.22;;
58878;SDS011;44660;42.664;23.266;2023-05-10T14:58:26;12.57;;;8.02;;
58878;SDS011;44660;42.664;23.266;2023-05-10T15:00:51;15.27;;;8.63;;
58878;SDS011;44660;42.664;23.266;2023-05-10T15:03:17;14.13;;;7.63;;
58878;SDS011;44660;42.664;23.266;2023-05-10T15:05:42;12.85;;;7.47;;
58878;SDS011;44660;42.664;23.266;2023-05-10T15:08:08;11.25;;;7.68;;
58878;SDS011;44660;42.664;23.266;2023-05-10T15:10:34;11.75;;;7.60;;
58878;SDS011;44660;42.664;23.266;2023-05-10T15:13:00;9.18;;;7.05;;
58878;SDS011;44660;42.664;23.266;2023-05-10T15:15:25;11.88;;;7.47;;
58878;SDS011;44660;42.664;23.266;2023-05-10T15:17:51;11.25;;;7.10;;
58878;SDS011;44660;42.664;23.266;2023-05-10T15:20:16;9.45;;;7.15;;
58878;SDS011;44660;42.664;23.266;2023-05-10T15:22:42;10.05;;;7.18;;
58878;SDS011;44660;42.664;23.266;2023-05-10T15:25:07;10.23;;;7.03;;
58878;SDS011;44660;42.664;23.266;2023-05-10T15:27:34;11.13;;;6.40;;
58878;SDS011;44660;42.664;23.266;2023-05-10T15:30:00;9.13;;;6.65;;